Bom Jesus do Norte, Brazil
Current Conditions -  °F | °C
As of 2:00 PM on Thursday 18 Dec 2014 (Local Time) from SBCP Reporting Station
Clear Clear  
Wind Chill: 91°   Ceiling: Unl
Heat Index: 97°   Visibility: 6mi
Dew Point: 70°   Wind: 14mph
Humidity: 49%   Direction: 70°ENE
Pressure: 29.8"   Gusts: NA
Location:  21.13°S, 41.68°W
Report Text: SBCP 181600Z 07012KT CAVOK 33/21 Q1009
Loading
Personal Weather Stations






























Interactive Weather Map New forecast layout! Learn more

10-Day Weather Forecast

Advertisements
Track Severe Weather on mobile